Big Bear Station Historical Data
Daily Summary for May 6, 2017 Units:  English    Metric   Both
Next Day »
Daily Weekly Monthly Yearly Custom
  High: Low: Average:
Temperature: 58.8 °F 26.1 °F 43.1 °F
Dew Point: 41.0 °F 19.7 °F 28.9 °F
Humidity: 96% 28% 62%
Wind Speed: 13.5mph 0.0mph 3.4mph
Wind Gust: -999.0mph - -
Wind- - SSW
Pressure: 29.99 in 29.75 in -
Precipitation: 0.04 in    
Historical Graphs
 
 
Tabular Data for May 6, 2017
Time Temperature Dew Point Pressure Wind Wind Speed Wind Gust Humidity Rainfall Rate (Hourly)
00:08 48.7 °F 26.0 °F 29.99 in SSW 1.7 mph -999.0 mph 41% 0 in
00:23 48.0 °F 26.6 °F 29.99 in South 2.2 mph -999.0 mph 43% 0 in
00:38 48.2 °F 25.6 °F 29.99 in South 2.2 mph -999.0 mph 41% 0 in
00:53 47.5 °F 26.1 °F 29.98 in SSE 2.2 mph -999.0 mph 43% 0 in
01:08 47.3 °F 24.8 °F 29.98 in SSE 1.7 mph -999.0 mph 41% 0 in
01:24 46.9 °F 25.0 °F 29.97 in South 2.2 mph -999.0 mph 42% 0 in
01:39 46.6 °F 25.3 °F 29.97 in SSE 1.7 mph -999.0 mph 43% 0 in
01:54 46.8 °F 24.3 °F 29.96 in SSE 2.2 mph -999.0 mph 41% 0 in
02:09 46.0 °F 23.6 °F 29.96 in Calm   -999.0 mph 41% 0 in
02:25 45.0 °F 24.9 °F 29.96 in Calm   -999.0 mph 45% 0 in
02:40 44.2 °F 25.2 °F 29.95 in Calm   -999.0 mph 47% 0 in
02:55 43.7 °F 24.8 °F 29.95 in Calm   -999.0 mph 47% 0 in
03:10 42.6 °F 24.3 °F 29.94 in Calm   -999.0 mph 48% 0 in
03:25 42.4 °F 25.1 °F 29.94 in Calm   -999.0 mph 50% 0 in
03:41 42.3 °F 24.5 °F 29.94 in Calm   -999.0 mph 49% 0 in
03:56 41.9 °F 24.6 °F 29.93 in Calm   -999.0 mph 50% 0 in
04:11 41.5 °F 23.8 °F 29.93 in Calm   -999.0 mph 49% 0 in
04:26 41.9 °F 24.1 °F 29.92 in Calm   -999.0 mph 49% 0 in
04:41 43.0 °F 24.1 °F 29.92 in ESE 1.1 mph -999.0 mph 47% 0 in
04:57 43.3 °F 23.9 °F 29.92 in Calm   -999.0 mph 46% 0 in
05:12 44.1 °F 24.1 °F 29.92 in Calm   -999.0 mph 45% 0 in
05:27 44.1 °F 24.1 °F 29.92 in SSE 1.7 mph -999.0 mph 45% 0 in
05:42 43.3 °F 24.9 °F 29.91 in SSE 1.7 mph -999.0 mph 48% 0 in
05:57 43.0 °F 24.6 °F 29.91 in SSE 1.7 mph -999.0 mph 48% 0 in
06:13 43.7 °F 24.8 °F 29.91 in SSE 2.2 mph -999.0 mph 47% 0 in
06:28 43.2 °F 25.3 °F 29.91 in Calm   -999.0 mph 49% 0 in
06:43 44.1 °F 25.1 °F 29.92 in Calm   -999.0 mph 47% 0 in
06:58 45.3 °F 25.2 °F 29.91 in Calm   -999.0 mph 45% 0 in
07:13 45.9 °F 22.3 °F 29.92 in SSW 1.7 mph -999.0 mph 39% 0 in
07:29 45.5 °F 24.3 °F 29.92 in South 1.1 mph -999.0 mph 43% 0 in
07:44 46.2 °F 24.4 °F 29.91 in North 1.7 mph -999.0 mph 42% 0 in
07:59 49.3 °F 23.5 °F 29.91 in WNW 1.7 mph -999.0 mph 36% 0 in
08:14 50.5 °F 23.8 °F 29.91 in Calm   -999.0 mph 35% 0 in
08:30 51.8 °F 24.3 °F 29.91 in South 1.7 mph -999.0 mph 34% 0 in
08:45 51.8 °F 24.3 °F 29.91 in SE 3.2 mph -999.0 mph 34% 0 in
09:00 50.9 °F 19.7 °F 29.91 in SSW 2.7 mph -999.0 mph 29% 0 in
09:15 51.1 °F 21.5 °F 29.91 in SE 2.7 mph -999.0 mph 31% 0 in
09:31 51.8 °F 21.3 °F 29.91 in SSE 4.7 mph -999.0 mph 30% 0 in
09:46 54.0 °F 24.0 °F 29.90 in SSE 4.2 mph -999.0 mph 31% 0 in
10:01 54.7 °F 23.9 °F 29.90 in SSW 2.2 mph -999.0 mph 30% 0 in
10:16 54.5 °F 22.0 °F 29.90 in NE 1.7 mph -999.0 mph 28% 0 in
10:32 55.6 °F 23.8 °F 29.90 in SSE 5.3 mph -999.0 mph 29% 0 in
10:47 55.8 °F 24.8 °F 29.90 in SW 4.2 mph -999.0 mph 30% 0 in
11:02 53.1 °F 40.0 °F 29.90 in NW 4.7 mph -999.0 mph 61% 0 in
11:17 54.5 °F 38.7 °F 29.90 in NNW 4.2 mph -999.0 mph 55% 0 in
11:33 57.0 °F 25.0 °F 29.89 in South 4.7 mph -999.0 mph 29% 0 in
11:48 58.8 °F 29.0 °F 29.89 in WNW 5.8 mph -999.0 mph 32% 0 in
12:03 58.1 °F 32.6 °F 29.89 in SSW 4.7 mph -999.0 mph 38% 0 in
12:19 54.5 °F 40.9 °F 29.89 in NNW 2.7 mph -999.0 mph 60% 0 in
12:34 52.0 °F 41.0 °F 29.88 in NE 1.7 mph -999.0 mph 66% 0 in
12:49 57.2 °F 38.2 °F 29.88 in NW 1.7 mph -999.0 mph 49% 0 in
13:05 55.0 °F 35.7 °F 29.88 in WNW 5.3 mph -999.0 mph 48% 0 in
13:20 55.9 °F 37.5 °F 29.87 in South 6.3 mph -999.0 mph 50% 0 in
13:35 55.2 °F 37.4 °F 29.87 in SSW 4.7 mph -999.0 mph 51% 0 in
13:50 50.9 °F 36.6 °F 29.87 in SSE 6.8 mph -999.0 mph 58% 0 in
14:06 50.9 °F 38.3 °F 29.86 in SSW 8.9 mph -999.0 mph 62% 0 in
14:21 50.0 °F 38.3 °F 29.86 in South 3.7 mph -999.0 mph 64% 0 in
14:36 48.7 °F 38.6 °F 29.86 in SSW 2.7 mph -999.0 mph 68% 0 in
14:52 45.5 °F 38.0 °F 29.86 in WSW 2.2 mph -999.0 mph 75% 0 in
15:07 45.1 °F 39.6 °F 29.85 in South 4.2 mph -999.0 mph 81% 0 in
15:22 43.5 °F 39.0 °F 29.85 in South 4.2 mph -999.0 mph 84% 0 in
15:38 43.2 °F 38.7 °F 29.84 in WSW 7.3 mph -999.0 mph 84% 0 in
15:53 41.7 °F 36.9 °F 29.84 in South 5.8 mph -999.0 mph 83% 0 in
16:09 41.0 °F 37.7 °F 29.83 in ESE 6.8 mph -999.0 mph 88% 0 in
16:24 40.1 °F 37.1 °F 29.82 in SSE 4.7 mph -999.0 mph 89% 0 in
16:39 40.6 °F 36.4 °F 29.81 in NNW 7.3 mph -999.0 mph 85% 0 in
16:54 41.5 °F 36.4 °F 29.81 in West 6.8 mph -999.0 mph 82% 0 in
17:10 39.9 °F 36.1 °F 29.79 in SSE 6.8 mph -999.0 mph 86% 0 in
17:25 37.9 °F 35.5 °F 29.79 in SSW 8.3 mph -999.0 mph 91% 0 in
17:40 38.1 °F 34.9 °F 29.79 in NE 3.2 mph -999.0 mph 88% 0 in
17:55 37.6 °F 34.7 °F 29.79 in South 4.7 mph -999.0 mph 89% 0 in
18:11 36.3 °F 34.2 °F 29.78 in SSE 9.4 mph -999.0 mph 92% 0 in
18:26 36.3 °F 34.2 °F 29.76 in South 4.7 mph -999.0 mph 92% 0 in
18:41 35.4 °F 33.8 °F 29.75 in SSE 7.3 mph -999.0 mph 94% 0 in
18:56 34.7 °F 33.4 °F 29.75 in SSE 3.2 mph -999.0 mph 95% 0 in
19:11 33.6 °F 32.6 °F 29.75 in SSE 4.2 mph -999.0 mph 96% 0 in
19:27 32.5 °F 31.2 °F 29.75 in West 13.5 mph -999.0 mph 95% 0 in
19:42 31.5 °F 30.0 °F 29.76 in ESE 5.3 mph -999.0 mph 94% 0 in
19:57 30.4 °F 29.1 °F 29.77 in SSW 5.3 mph -999.0 mph 95% 0 in
20:13 29.7 °F 28.2 °F 29.77 in SSE 4.7 mph -999.0 mph 94% 0 in
20:28 29.1 °F 27.6 °F 29.78 in SW 4.7 mph -999.0 mph 94% 0 in
20:43 28.2 °F 25.6 °F 29.80 in South 7.8 mph -999.0 mph 90% 0 in
20:59 28.2 °F 25.6 °F 29.81 in NW 2.2 mph -999.0 mph 90% 0 in
21:14 28.6 °F 26.0 °F 29.80 in South 4.2 mph -999.0 mph 90% 0 in
21:29 28.8 °F 27.0 °F 29.80 in Calm   -999.0 mph 93% 0 in
21:44 28.4 °F 26.9 °F 29.80 in SSE 2.7 mph -999.0 mph 94% 0 in
22:00 28.0 °F 26.0 °F 29.80 in South 2.7 mph -999.0 mph 92% 0 in
22:15 27.5 °F 25.5 °F 29.79 in SE 2.2 mph -999.0 mph 92% 0 in
22:30 27.0 °F 24.5 °F 29.77 in SW 7.8 mph -999.0 mph 90% 0 in
22:45 26.6 °F 24.6 °F 29.76 in SSW 4.7 mph -999.0 mph 92% 0 in
23:00 26.1 °F 23.8 °F 29.77 in SSE 3.2 mph -999.0 mph 91% 0 in
23:16 26.4 °F 24.7 °F 29.77 in WNW 3.7 mph -999.0 mph 93% 0 in
23:31 26.4 °F 24.7 °F 29.78 in NNW 5.8 mph -999.0 mph 93% 0 in
23:46 26.1 °F 24.4 °F 29.78 in West 2.2 mph -999.0 mph 93% 0 in
Big Bear CA Weather